sensor_id;sensor_type;location;lat;lon;timestamp;pressure;altitude;pressure_sealevel;temperature;humidity
46638;BME280;32365;46.938;7.390;2023-05-11T06:05:16;95147.81;;;9.49;90.77
46638;BME280;32365;46.938;7.390;2023-05-11T06:07:42;95139.81;;;9.51;90.93
46638;BME280;32365;46.938;7.390;2023-05-11T06:10:08;95142.97;;;9.65;90.84
46638;BME280;32365;46.938;7.390;2023-05-11T06:12:35;95142.16;;;9.76;89.89
46638;BME280;32365;46.938;7.390;2023-05-11T06:15:02;95135.88;;;9.84;90.43
46638;BME280;32365;46.938;7.390;2023-05-11T06:17:28;95130.88;;;9.94;90.41
46638;BME280;32365;46.938;7.390;2023-05-11T06:19:55;95132.16;;;9.92;89.21
46638;BME280;32365;46.938;7.390;2023-05-11T06:22:23;95139.16;;;10.08;89.80
46638;BME280;32365;46.938;7.390;2023-05-11T06:24:50;95129.75;;;10.31;88.64
46638;BME280;32365;46.938;7.390;2023-05-11T06:27:16;95130.91;;;10.52;87.14
46638;BME280;32365;46.938;7.390;2023-05-11T06:29:43;95129.03;;;10.47;86.50
46638;BME280;32365;46.938;7.390;2023-05-11T06:32:09;95126.72;;;10.63;87.49
46638;BME280;32365;46.938;7.390;2023-05-11T06:34:36;95127.72;;;10.62;86.72
46638;BME280;32365;46.938;7.390;2023-05-11T06:37:03;95124.44;;;10.67;85.72
46638;BME280;32365;46.938;7.390;2023-05-11T06:39:34;95126.94;;;10.78;85.71
46638;BME280;32365;46.938;7.390;2023-05-11T06:42:00;95125.78;;;11.03;85.00
46638;BME280;32365;46.938;7.390;2023-05-11T06:44:27;95126.56;;;11.21;83.37
46638;BME280;32365;46.938;7.390;2023-05-11T06:46:53;95121.22;;;11.28;82.95
46638;BME280;32365;46.938;7.390;2023-05-11T06:49:20;95125.84;;;11.26;82.53
46638;BME280;32365;46.938;7.390;2023-05-11T06:51:46;95117.47;;;11.18;83.06
46638;BME280;32365;46.938;7.390;2023-05-11T06:54:13;95119.22;;;11.35;80.88
46638;BME280;32365;46.938;7.390;2023-05-11T06:56:41;95121.09;;;11.39;80.55
46638;BME280;32365;46.938;7.390;2023-05-11T06:59:07;95115.16;;;11.22;80.53
46638;BME280;32365;46.938;7.390;2023-05-11T07:01:34;95115.38;;;11.20;80.90
46638;BME280;32365;46.938;7.390;2023-05-11T07:04:00;95120.53;;;11.77;80.78
46638;BME280;32365;46.938;7.390;2023-05-11T07:06:27;95113.38;;;11.84;79.53
46638;BME280;32365;46.938;7.390;2023-05-11T07:08:54;95119.88;;;12.09;78.71
46638;BME280;32365;46.938;7.390;2023-05-11T07:11:20;95129.22;;;11.65;78.39
46638;BME280;32365;46.938;7.390;2023-05-11T07:13:48;95126.41;;;12.11;79.74
46638;BME280;32365;46.938;7.390;2023-05-11T07:16:15;95125.22;;;12.19;76.51
46638;BME280;32365;46.938;7.390;2023-05-11T07:18:41;95119.28;;;12.24;77.30
46638;BME280;32365;46.938;7.390;2023-05-11T07:21:08;95120.06;;;12.52;76.20
46638;BME280;32365;46.938;7.390;2023-05-11T07:23:34;95119.19;;;12.13;76.51
46638;BME280;32365;46.938;7.390;2023-05-11T07:26:01;95120.41;;;12.33;76.35
46638;BME280;32365;46.938;7.390;2023-05-11T07:28:33;95125.34;;;12.35;75.22
46638;BME280;32365;46.938;7.390;2023-05-11T07:31:00;95120.09;;;12.57;73.80
46638;BME280;32365;46.938;7.390;2023-05-11T07:33:27;95126.88;;;12.58;75.84
46638;BME280;32365;46.938;7.390;2023-05-11T07:35:53;95125.19;;;13.06;72.82
46638;BME280;32365;46.938;7.390;2023-05-11T07:38:20;95116.41;;;13.18;71.83
46638;BME280;32365;46.938;7.390;2023-05-11T07:40:46;95122.72;;;13.65;69.04
46638;BME280;32365;46.938;7.390;2023-05-11T07:43:13;95121.94;;;13.69;68.87
46638;BME280;32365;46.938;7.390;2023-05-11T07:45:39;95113.34;;;13.69;69.37
46638;BME280;32365;46.938;7.390;2023-05-11T07:48:07;95120.38;;;13.68;66.27
46638;BME280;32365;46.938;7.390;2023-05-11T07:50:34;95117.41;;;13.49;67.31
46638;BME280;32365;46.938;7.390;2023-05-11T07:53:00;95109.00;;;13.90;65.60
46638;BME280;32365;46.938;7.390;2023-05-11T07:55:27;95107.25;;;14.16;63.27
46638;BME280;32365;46.938;7.390;2023-05-11T07:57:54;95106.78;;;14.40;63.83
46638;BME280;32365;46.938;7.390;2023-05-11T08:00:21;95109.41;;;14.35;63.16
46638;BME280;32365;46.938;7.390;2023-05-11T08:02:48;95124.13;;;13.93;65.11
46638;BME280;32365;46.938;7.390;2023-05-11T08:05:15;95108.09;;;13.59;66.07
46638;BME280;32365;46.938;7.390;2023-05-11T08:07:42;95108.53;;;13.45;65.68
46638;BME280;32365;46.938;7.390;2023-05-11T08:10:09;95108.69;;;13.71;63.29
46638;BME280;32365;46.938;7.390;2023-05-11T08:12:36;95104.25;;;13.23;66.38
46638;BME280;32365;46.938;7.390;2023-05-11T08:15:03;95111.53;;;13.27;65.43
46638;BME280;32365;46.938;7.390;2023-05-11T08:17:30;95106.56;;;13.25;67.53
46638;BME280;32365;46.938;7.390;2023-05-11T08:19:57;95108.53;;;13.40;66.93
46638;BME280;32365;46.938;7.390;2023-05-11T08:22:24;95106.56;;;13.25;66.32
46638;BME280;32365;46.938;7.390;2023-05-11T08:24:51;95099.63;;;12.93;67.52
46638;BME280;32365;46.938;7.390;2023-05-11T08:27:17;95096.69;;;12.84;67.20
46638;BME280;32365;46.938;7.390;2023-05-11T08:29:44;95096.00;;;12.61;69.85
46638;BME280;32365;46.938;7.390;2023-05-11T08:32:10;95098.47;;;12.78;68.27
46638;BME280;32365;46.938;7.390;2023-05-11T08:34:37;95102.47;;;12.91;68.77
46638;BME280;32365;46.938;7.390;2023-05-11T08:37:04;95096.00;;;12.94;68.30
46638;BME280;32365;46.938;7.390;2023-05-11T08:39:33;95093.41;;;12.61;68.69
46638;BME280;32365;46.938;7.390;2023-05-11T08:42:01;95092.59;;;12.93;67.11
46638;BME280;32365;46.938;7.390;2023-05-11T08:44:31;95092.53;;;13.21;65.60
46638;BME280;32365;46.938;7.390;2023-05-11T08:46:57;95099.47;;;12.72;68.50
46638;BME280;32365;46.938;7.390;2023-05-11T08:49:25;95100.53;;;12.76;67.98
46638;BME280;32365;46.938;7.390;2023-05-11T08:51:51;95092.22;;;12.74;67.90
46638;BME280;32365;46.938;7.390;2023-05-11T08:54:18;95090.50;;;12.58;72.46
46638;BME280;32365;46.938;7.390;2023-05-11T08:56:46;95087.09;;;12.52;70.28
46638;BME280;32365;46.938;7.390;2023-05-11T08:59:14;95088.06;;;12.73;66.87
46638;BME280;32365;46.938;7.390;2023-05-11T09:01:40;95089.63;;;12.74;68.10
46638;BME280;32365;46.938;7.390;2023-05-11T09:04:07;95080.78;;;13.56;65.97
46638;BME280;32365;46.938;7.390;2023-05-11T09:06:35;95089.94;;;13.69;65.62
46638;BME280;32365;46.938;7.390;2023-05-11T09:09:02;95082.94;;;13.27;65.46
46638;BME280;32365;46.938;7.390;2023-05-11T09:11:29;95081.88;;;13.22;68.23
46638;BME280;32365;46.938;7.390;2023-05-11T09:13:57;95077.91;;;13.52;65.60
46638;BME280;32365;46.938;7.390;2023-05-11T09:16:24;95076.94;;;12.83;65.64
46638;BME280;32365;46.938;7.390;2023-05-11T09:18:52;95080.53;;;13.15;63.54
46638;BME280;32365;46.938;7.390;2023-05-11T09:21:19;95076.91;;;12.78;66.13
46638;BME280;32365;46.938;7.390;2023-05-11T09:23:47;95077.06;;;13.42;64.06
46638;BME280;32365;46.938;7.390;2023-05-11T09:26:15;95073.94;;;14.13;63.11
46638;BME280;32365;46.938;7.390;2023-05-11T09:28:47;95072.38;;;14.07;63.72
46638;BME280;32365;46.938;7.390;2023-05-11T09:31:33;95066.94;;;14.45;60.38
46638;BME280;32365;46.938;7.390;2023-05-11T09:34:14;95064.38;;;14.91;60.93
46638;BME280;32365;46.938;7.390;2023-05-11T09:36:41;95062.53;;;14.66;62.88
46638;BME280;32365;46.938;7.390;2023-05-11T09:39:08;95060.97;;;14.86;60.73
46638;BME280;32365;46.938;7.390;2023-05-11T09:41:35;95064.06;;;15.29;58.03
46638;BME280;32365;46.938;7.390;2023-05-11T09:44:06;95064.91;;;15.90;58.15
46638;BME280;32365;46.938;7.390;2023-05-11T09:46:36;95057.22;;;17.43;51.28
46638;BME280;32365;46.938;7.390;2023-05-11T09:49:03;95058.63;;;16.71;59.88
46638;BME280;32365;46.938;7.390;2023-05-11T09:51:31;95050.66;;;15.62;59.74
46638;BME280;32365;46.938;7.390;2023-05-11T09:53:59;95047.97;;;15.77;53.94
46638;BME280;32365;46.938;7.390;2023-05-11T09:56:43;95045.88;;;14.77;59.17
46638;BME280;32365;46.938;7.390;2023-05-11T09:59:10;95046.34;;;14.07;61.25
46638;BME280;32365;46.938;7.390;2023-05-11T10:01:39;95046.41;;;14.49;64.86
46638;BME280;32365;46.938;7.390;2023-05-11T10:04:05;95046.59;;;14.06;61.35
46638;BME280;32365;46.938;7.390;2023-05-11T10:06:46;95051.00;;;14.05;63.02
46638;BME280;32365;46.938;7.390;2023-05-11T10:09:14;95043.53;;;14.60;63.13
46638;BME280;32365;46.938;7.390;2023-05-11T10:11:43;95041.44;;;16.30;55.89
46638;BME280;32365;46.938;7.390;2023-05-11T10:14:12;95035.59;;;17.07;49.02
46638;BME280;32365;46.938;7.390;2023-05-11T10:16:41;95037.78;;;15.76;52.41
46638;BME280;32365;46.938;7.390;2023-05-11T10:19:07;95033.53;;;16.00;55.77
46638;BME280;32365;46.938;7.390;2023-05-11T10:21:34;95041.69;;;15.78;55.30
46638;BME280;32365;46.938;7.390;2023-05-11T10:24:01;95029.16;;;16.65;54.71
46638;BME280;32365;46.938;7.390;2023-05-11T10:26:29;95032.03;;;17.90;48.97
46638;BME280;32365;46.938;7.390;2023-05-11T10:28:57;95035.09;;;19.72;46.13
46638;BME280;32365;46.938;7.390;2023-05-11T10:31:24;95035.88;;;19.72;44.72
46638;BME280;32365;46.938;7.390;2023-05-11T10:33:52;95030.16;;;19.70;46.10
46638;BME280;32365;46.938;7.390;2023-05-11T10:36:22;95019.09;;;18.84;47.37
46638;BME280;32365;46.938;7.390;2023-05-11T10:38:49;95022.00;;;17.97;49.96
46638;BME280;32365;46.938;7.390;2023-05-11T10:41:28;95019.06;;;17.61;50.29
46638;BME280;32365;46.938;7.390;2023-05-11T10:44:19;95019.19;;;17.02;50.86
46638;BME280;32365;46.938;7.390;2023-05-11T10:47:18;95028.59;;;15.94;55.48
46638;BME280;32365;46.938;7.390;2023-05-11T10:50:03;95031.69;;;15.41;57.24
46638;BME280;32365;46.938;7.390;2023-05-11T10:52:49;95032.84;;;14.41;61.87
46638;BME280;32365;46.938;7.390;2023-05-11T10:55:31;95025.78;;;14.31;63.72
46638;BME280;32365;46.938;7.390;2023-05-11T10:58:06;95018.72;;;13.22;62.56
46638;BME280;32365;46.938;7.390;2023-05-11T11:03:54;95030.06;;;11.80;67.58
46638;BME280;32365;46.938;7.390;2023-05-11T11:06:23;95024.00;;;11.47;70.00
46638;BME280;32365;46.938;7.390;2023-05-11T11:08:57;95015.66;;;11.01;74.98
46638;BME280;32365;46.938;7.390;2023-05-11T11:11:31;95022.38;;;10.62;78.03
46638;BME280;32365;46.938;7.390;2023-05-11T11:13:59;95018.31;;;10.50;77.56
46638;BME280;32365;46.938;7.390;2023-05-11T11:16:28;95010.75;;;10.48;79.17
46638;BME280;32365;46.938;7.390;2023-05-11T11:22:00;95009.66;;;10.61;80.88
46638;BME280;32365;46.938;7.390;2023-05-11T11:24:44;95012.00;;;10.80;79.17
46638;BME280;32365;46.938;7.390;2023-05-11T11:27:11;95007.97;;;11.06;80.95
46638;BME280;32365;46.938;7.390;2023-05-11T11:29:38;95006.41;;;11.27;82.05
46638;BME280;32365;46.938;7.390;2023-05-11T11:32:25;95006.81;;;11.19;76.80
46638;BME280;32365;46.938;7.390;2023-05-11T11:34:55;94998.75;;;11.37;77.91
46638;BME280;32365;46.938;7.390;2023-05-11T11:37:23;94996.22;;;11.20;77.30
46638;BME280;32365;46.938;7.390;2023-05-11T11:39:52;94988.81;;;11.51;76.39
46638;BME280;32365;46.938;7.390;2023-05-11T11:42:35;94990.94;;;11.82;74.25
46638;BME280;32365;46.938;7.390;2023-05-11T11:45:26;94989.91;;;12.10;76.63
46638;BME280;32365;46.938;7.390;2023-05-11T11:48:13;94987.75;;;12.29;73.16
46638;BME280;32365;46.938;7.390;2023-05-11T11:50:44;94984.31;;;12.24;75.87
46638;BME280;32365;46.938;7.390;2023-05-11T11:56:42;94982.31;;;12.69;74.00
46638;BME280;32365;46.938;7.390;2023-05-11T11:59:10;94986.47;;;12.32;73.39
46638;BME280;32365;46.938;7.390;2023-05-11T12:01:38;94984.19;;;12.78;72.55
46638;BME280;32365;46.938;7.390;2023-05-11T12:07:11;94983.09;;;12.69;73.49
46638;BME280;32365;46.938;7.390;2023-05-11T12:09:39;94985.56;;;12.91;70.40
46638;BME280;32365;46.938;7.390;2023-05-11T12:12:08;94979.16;;;13.09;66.48
46638;BME280;32365;46.938;7.390;2023-05-11T12:14:37;94982.31;;;12.69;69.25
46638;BME280;32365;46.938;7.390;2023-05-11T12:17:07;94983.66;;;12.06;70.61
46638;BME280;32365;46.938;7.390;2023-05-11T12:19:38;94984.00;;;12.47;70.00
46638;BME280;32365;46.938;7.390;2023-05-11T12:22:04;94980.50;;;12.31;68.91
46638;BME280;32365;46.938;7.390;2023-05-11T12:24:31;94982.75;;;12.55;70.33
46638;BME280;32365;46.938;7.390;2023-05-11T12:27:01;94973.63;;;12.53;69.14
46638;BME280;32365;46.938;7.390;2023-05-11T12:29:29;94967.69;;;13.05;68.67
46638;BME280;32365;46.938;7.390;2023-05-11T12:31:57;94977.34;;;12.67;67.90
46638;BME280;32365;46.938;7.390;2023-05-11T12:34:24;94973.84;;;12.46;73.72
46638;BME280;32365;46.938;7.390;2023-05-11T12:36:51;94970.97;;;12.10;70.66
46638;BME280;32365;46.938;7.390;2023-05-11T12:39:19;94968.56;;;12.30;73.59
46638;BME280;32365;46.938;7.390;2023-05-11T12:41:47;94968.97;;;12.17;73.06
46638;BME280;32365;46.938;7.390;2023-05-11T12:44:16;94968.22;;;11.94;70.53
46638;BME280;32365;46.938;7.390;2023-05-11T12:46:45;94974.09;;;11.84;72.39
46638;BME280;32365;46.938;7.390;2023-05-11T12:49:15;94980.47;;;11.99;72.93
46638;BME280;32365;46.938;7.390;2023-05-11T12:51:49;94982.81;;;12.66;72.61
46638;BME280;32365;46.938;7.390;2023-05-11T12:54:26;94978.53;;;12.87;73.04
46638;BME280;32365;46.938;7.390;2023-05-11T12:56:53;94985.63;;;12.64;73.29
46638;BME280;32365;46.938;7.390;2023-05-11T12:59:26;94971.06;;;12.58;72.18
46638;BME280;32365;46.938;7.390;2023-05-11T13:01:52;94973.38;;;12.54;74.16
46638;BME280;32365;46.938;7.390;2023-05-11T13:04:27;94956.13;;;12.32;79.36
46638;BME280;32365;46.938;7.390;2023-05-11T13:06:54;94949.31;;;11.44;77.88
46638;BME280;32365;46.938;7.390;2023-05-11T13:09:21;94936.56;;;10.93;79.27
46638;BME280;32365;46.938;7.390;2023-05-11T13:11:48;94940.69;;;10.72;77.55
46638;BME280;32365;46.938;7.390;2023-05-11T13:14:15;94935.88;;;10.58;80.57
46638;BME280;32365;46.938;7.390;2023-05-11T13:16:51;94940.22;;;10.75;84.31
46638;BME280;32365;46.938;7.390;2023-05-11T13:19:26;94935.13;;;10.80;84.86
46638;BME280;32365;46.938;7.390;2023-05-11T13:21:53;94932.88;;;10.89;81.31
46638;BME280;32365;46.938;7.390;2023-05-11T13:24:20;94937.41;;;10.99;80.57
46638;BME280;32365;46.938;7.390;2023-05-11T13:26:46;94936.97;;;10.85;83.33
46638;BME280;32365;46.938;7.390;2023-05-11T13:29:13;94938.75;;;10.62;84.17
46638;BME280;32365;46.938;7.390;2023-05-11T13:31:45;94940.59;;;10.84;84.65
46638;BME280;32365;46.938;7.390;2023-05-11T13:34:12;94931.31;;;10.49;87.27
46638;BME280;32365;46.938;7.390;2023-05-11T13:36:38;94938.16;;;10.38;85.36
46638;BME280;32365;46.938;7.390;2023-05-11T13:39:05;94927.22;;;10.53;87.79
46638;BME280;32365;46.938;7.390;2023-05-11T13:41:32;94923.53;;;10.66;87.13
46638;BME280;32365;46.938;7.390;2023-05-11T13:43:59;94926.91;;;10.88;87.31
46638;BME280;32365;46.938;7.390;2023-05-11T13:46:25;94927.69;;;10.89;84.93
46638;BME280;32365;46.938;7.390;2023-05-11T13:48:54;94921.88;;;10.99;86.06
46638;BME280;32365;46.938;7.390;2023-05-11T13:51:21;94936.78;;;11.14;86.59
46638;BME280;32365;46.938;7.390;2023-05-11T13:53:47;94931.59;;;11.36;83.69
46638;BME280;32365;46.938;7.390;2023-05-11T13:56:14;94923.19;;;11.51;79.69
46638;BME280;32365;46.938;7.390;2023-05-11T13:58:40;94929.91;;;11.74;78.77
46638;BME280;32365;46.938;7.390;2023-05-11T14:01:07;94930.53;;;12.14;80.70
46638;BME280;32365;46.938;7.390;2023-05-11T14:03:33;94925.38;;;11.92;78.85
46638;BME280;32365;46.938;7.390;2023-05-11T14:06:01;94925.28;;;12.09;79.28
46638;BME280;32365;46.938;7.390;2023-05-11T14:08:28;94926.00;;;12.31;80.17
46638;BME280;32365;46.938;7.390;2023-05-11T14:10:55;94920.44;;;12.18;80.08
46638;BME280;32365;46.938;7.390;2023-05-11T14:13:21;94925.41;;;12.24;82.16
46638;BME280;32365;46.938;7.390;2023-05-11T14:15:50;94914.97;;;12.57;83.46
46638;BME280;32365;46.938;7.390;2023-05-11T14:18:16;94919.09;;;13.06;82.00
46638;BME280;32365;46.938;7.390;2023-05-11T14:20:43;94918.66;;;12.66;81.25
46638;BME280;32365;46.938;7.390;2023-05-11T14:23:10;94913.19;;;12.62;74.33
46638;BME280;32365;46.938;7.390;2023-05-11T14:25:37;94906.69;;;12.60;72.08
46638;BME280;32365;46.938;7.390;2023-05-11T14:28:04;94910.97;;;12.39;73.15
46638;BME280;32365;46.938;7.390;2023-05-11T14:30:30;94908.78;;;12.20;73.50
46638;BME280;32365;46.938;7.390;2023-05-11T14:32:57;94901.13;;;12.41;74.14
46638;BME280;32365;46.938;7.390;2023-05-11T14:35:23;94908.44;;;12.44;73.27
46638;BME280;32365;46.938;7.390;2023-05-11T14:37:49;94900.81;;;12.32;71.82
46638;BME280;32365;46.938;7.390;2023-05-11T14:40:17;94897.59;;;12.62;72.74
46638;BME280;32365;46.938;7.390;2023-05-11T14:42:44;94902.41;;;12.86;69.36
46638;BME280;32365;46.938;7.390;2023-05-11T14:45:10;94900.06;;;12.85;69.34
46638;BME280;32365;46.938;7.390;2023-05-11T14:47:37;94898.38;;;12.63;73.85
46638;BME280;32365;46.938;7.390;2023-05-11T14:50:05;94902.19;;;12.98;73.29
46638;BME280;32365;46.938;7.390;2023-05-11T14:52:31;94897.72;;;12.93;73.33
46638;BME280;32365;46.938;7.390;2023-05-11T14:54:58;94898.81;;;12.98;65.29
46638;BME280;32365;46.938;7.390;2023-05-11T14:57:26;94899.09;;;13.06;69.94
46638;BME280;32365;46.938;7.390;2023-05-11T14:59:53;94901.19;;;13.09;67.87
46638;BME280;32365;46.938;7.390;2023-05-11T15:02:20;94899.38;;;13.05;65.15
46638;BME280;32365;46.938;7.390;2023-05-11T15:04:46;94901.19;;;13.15;67.76
46638;BME280;32365;46.938;7.390;2023-05-11T15:07:13;94898.16;;;13.38;68.89
46638;BME280;32365;46.938;7.390;2023-05-11T15:09:39;94893.97;;;13.32;64.99
46638;BME280;32365;46.938;7.390;2023-05-11T15:12:06;94902.56;;;13.28;64.70
46638;BME280;32365;46.938;7.390;2023-05-11T15:14:34;94896.03;;;13.25;63.75
46638;BME280;32365;46.938;7.390;2023-05-11T15:17:01;94915.63;;;13.48;64.23
46638;BME280;32365;46.938;7.390;2023-05-11T15:19:27;94906.44;;;13.25;67.49
46638;BME280;32365;46.938;7.390;2023-05-11T15:21:53;94906.16;;;13.16;67.36
46638;BME280;32365;46.938;7.390;2023-05-11T15:24:20;94901.47;;;13.13;67.66
46638;BME280;32365;46.938;7.390;2023-05-11T15:26:46;94898.97;;;13.44;65.13
46638;BME280;32365;46.938;7.390;2023-05-11T15:29:13;94909.34;;;13.39;64.20
46638;BME280;32365;46.938;7.390;2023-05-11T15:31:42;94894.72;;;13.22;64.71
46638;BME280;32365;46.938;7.390;2023-05-11T15:34:08;94900.41;;;13.09;64.71
46638;BME280;32365;46.938;7.390;2023-05-11T15:36:34;94900.16;;;13.11;62.18
46638;BME280;32365;46.938;7.390;2023-05-11T15:39:01;94902.31;;;13.34;65.73
46638;BME280;32365;46.938;7.390;2023-05-11T15:41:27;94905.06;;;13.07;66.01
46638;BME280;32365;46.938;7.390;2023-05-11T15:43:54;94901.81;;;12.74;65.47
46638;BME280;32365;46.938;7.390;2023-05-11T15:46:20;94901.31;;;12.77;67.40
46638;BME280;32365;46.938;7.390;2023-05-11T15:48:48;94893.06;;;12.90;66.30
46638;BME280;32365;46.938;7.390;2023-05-11T15:51:15;94900.25;;;12.68;67.53
46638;BME280;32365;46.938;7.390;2023-05-11T15:53:42;94904.50;;;12.89;70.78
46638;BME280;32365;46.938;7.390;2023-05-11T15:56:08;94890.31;;;13.18;71.71
46638;BME280;32365;46.938;7.390;2023-05-11T15:58:35;94892.50;;;13.62;69.84
46638;BME280;32365;46.938;7.390;2023-05-11T16:01:01;94893.97;;;13.32;71.80
46638;BME280;32365;46.938;7.390;2023-05-11T16:03:28;94890.41;;;13.59;70.72
46638;BME280;32365;46.938;7.390;2023-05-11T16:05:55;94899.53;;;13.77;70.77
46638;BME280;32365;46.938;7.390;2023-05-11T16:08:22;94892.78;;;13.81;71.27
46638;BME280;32365;46.938;7.390;2023-05-11T16:10:48;94901.88;;;13.84;71.34
46638;BME280;32365;46.938;7.390;2023-05-11T16:13:15;94898.50;;;13.99;68.37
46638;BME280;32365;46.938;7.390;2023-05-11T16:15:42;94897.22;;;14.07;68.10
46638;BME280;32365;46.938;7.390;2023-05-11T16:18:08;94896.16;;;14.03;68.28
46638;BME280;32365;46.938;7.390;2023-05-11T16:20:36;94892.78;;;13.92;70.02
46638;BME280;32365;46.938;7.390;2023-05-11T16:23:04;94899.53;;;14.13;67.25
46638;BME280;32365;46.938;7.390;2023-05-11T16:25:30;94892.25;;;13.90;68.29
46638;BME280;32365;46.938;7.390;2023-05-11T16:27:57;94891.44;;;14.36;68.11
46638;BME280;32365;46.938;7.390;2023-05-11T16:30:23;94889.34;;;14.38;66.52
46638;BME280;32365;46.938;7.390;2023-05-11T16:32:50;94894.28;;;14.55;67.71
46638;BME280;32365;46.938;7.390;2023-05-11T16:35:17;94913.59;;;14.02;70.01
46638;BME280;32365;46.938;7.390;2023-05-11T16:37:43;94900.34;;;14.19;70.00
46638;BME280;32365;46.938;7.390;2023-05-11T16:40:12;94905.25;;;14.05;70.18
46638;BME280;32365;46.938;7.390;2023-05-11T16:42:38;94910.19;;;13.55;71.05
46638;BME280;32365;46.938;7.390;2023-05-11T16:45:05;94907.84;;;13.59;72.17
46638;BME280;32365;46.938;7.390;2023-05-11T16:47:32;94906.97;;;13.22;71.76
46638;BME280;32365;46.938;7.390;2023-05-11T16:49:58;94905.63;;;13.14;73.63
46638;BME280;32365;46.938;7.390;2023-05-11T16:52:25;94907.41;;;13.03;74.55
46638;BME280;32365;46.938;7.390;2023-05-11T16:54:51;94897.28;;;13.02;74.84
46638;BME280;32365;46.938;7.390;2023-05-11T16:57:20;94904.56;;;13.10;75.00
46638;BME280;32365;46.938;7.390;2023-05-11T16:59:46;94906.06;;;12.90;76.32
46638;BME280;32365;46.938;7.390;2023-05-11T17:02:13;94909.00;;;12.56;76.47
46638;BME280;32365;46.938;7.390;2023-05-11T17:04:39;94912.28;;;12.04;74.14
46638;BME280;32365;46.938;7.390;2023-05-11T17:07:06;94913.28;;;12.35;74.93
46638;BME280;32365;46.938;7.390;2023-05-11T17:09:35;94917.94;;;12.33;74.69
46638;BME280;32365;46.938;7.390;2023-05-11T17:12:06;94917.75;;;12.45;72.91
46638;BME280;32365;46.938;7.390;2023-05-11T17:14:34;94923.84;;;11.63;76.21
46638;BME280;32365;46.938;7.390;2023-05-11T17:17:00;94929.69;;;11.26;77.60
46638;BME280;32365;46.938;7.390;2023-05-11T17:19:28;94925.84;;;11.29;77.22
46638;BME280;32365;46.938;7.390;2023-05-11T17:21:54;94926.03;;;11.22;78.22
46638;BME280;32365;46.938;7.390;2023-05-11T17:24:21;94924.63;;;11.14;78.49
46638;BME280;32365;46.938;7.390;2023-05-11T17:26:47;94923.50;;;11.05;78.25
46638;BME280;32365;46.938;7.390;2023-05-11T17:29:14;94930.91;;;10.96;79.96
46638;BME280;32365;46.938;7.390;2023-05-11T17:31:42;94928.38;;;10.79;79.93
46638;BME280;32365;46.938;7.390;2023-05-11T17:34:10;94929.50;;;10.88;80.63
46638;BME280;32365;46.938;7.390;2023-05-11T17:36:37;94934.31;;;10.80;78.95
46638;BME280;32365;46.938;7.390;2023-05-11T17:39:03;94927.56;;;10.78;79.01
46638;BME280;32365;46.938;7.390;2023-05-11T17:41:30;94922.09;;;10.75;80.47
46638;BME280;32365;46.938;7.390;2023-05-11T17:43:57;94931.69;;;10.74;79.54
46638;BME280;32365;46.938;7.390;2023-05-11T17:46:23;94927.84;;;10.60;79.67
46638;BME280;32365;46.938;7.390;2023-05-11T17:48:51;94923.78;;;10.64;79.95
46638;BME280;32365;46.938;7.390;2023-05-11T17:51:18;94926.03;;;10.60;80.51
46638;BME280;32365;46.938;7.390;2023-05-11T17:53:45;94933.28;;;10.58;80.34
46638;BME280;32365;46.938;7.390;2023-05-11T17:56:13;94936.81;;;10.52;81.66
46638;BME280;32365;46.938;7.390;2023-05-11T17:58:40;94933.34;;;10.63;82.87
46638;BME280;32365;46.938;7.390;2023-05-11T18:01:08;94935.66;;;10.43;80.99
46638;BME280;32365;46.938;7.390;2023-05-11T18:03:36;94935.13;;;10.29;81.81
46638;BME280;32365;46.938;7.390;2023-05-11T18:06:04;94932.19;;;10.37;81.69
46638;BME280;32365;46.938;7.390;2023-05-11T18:08:32;94937.09;;;10.56;79.88
46638;BME280;32365;46.938;7.390;2023-05-11T18:10:58;94933.97;;;10.54;80.25
46638;BME280;32365;46.938;7.390;2023-05-11T18:13:25;94937.28;;;10.49;80.88
46638;BME280;32365;46.938;7.390;2023-05-11T18:15:54;94935.22;;;10.51;80.17
46638;BME280;32365;46.938;7.390;2023-05-11T18:18:21;94933.81;;;10.60;82.17
46638;BME280;32365;46.938;7.390;2023-05-11T18:20:48;94940.72;;;10.55;83.96
46638;BME280;32365;46.938;7.390;2023-05-11T18:23:16;94932.63;;;10.34;82.72
46638;BME280;32365;46.938;7.390;2023-05-11T18:25:42;94941.69;;;10.49;84.38
46638;BME280;32365;46.938;7.390;2023-05-11T18:28:09;94942.16;;;10.45;84.04
46638;BME280;32365;46.938;7.390;2023-05-11T18:30:35;94952.47;;;10.28;85.84
46638;BME280;32365;46.938;7.390;2023-05-11T18:33:02;94950.50;;;10.53;85.66
46638;BME280;32365;46.938;7.390;2023-05-11T18:35:28;94951.06;;;10.21;85.19
46638;BME280;32365;46.938;7.390;2023-05-11T18:37:55;94953.25;;;10.29;85.55
46638;BME280;32365;46.938;7.390;2023-05-11T18:40:24;94947.00;;;9.91;86.09
46638;BME280;32365;46.938;7.390;2023-05-11T18:42:51;94952.19;;;9.79;89.58
46638;BME280;32365;46.938;7.390;2023-05-11T18:45:17;94947.72;;;9.74;90.19
46638;BME280;32365;46.938;7.390;2023-05-11T18:47:44;94942.56;;;9.74;90.67
46638;BME280;32365;46.938;7.390;2023-05-11T18:50:10;94946.72;;;9.75;91.69
46638;BME280;32365;46.938;7.390;2023-05-11T18:52:37;94946.63;;;9.70;92.28
46638;BME280;32365;46.938;7.390;2023-05-11T18:55:04;94959.34;;;9.72;92.53
46638;BME280;32365;46.938;7.390;2023-05-11T18:57:31;94951.44;;;9.78;94.03
46638;BME280;32365;46.938;7.390;2023-05-11T18:59:58;94956.97;;;9.70;93.51
46638;BME280;32365;46.938;7.390;2023-05-11T19:02:25;94954.53;;;9.80;94.93
46638;BME280;32365;46.938;7.390;2023-05-11T19:04:51;94950.91;;;9.64;94.74
46638;BME280;32365;46.938;7.390;2023-05-11T19:07:18;94958.59;;;9.59;93.93
46638;BME280;32365;46.938;7.390;2023-05-11T19:09:44;94958.94;;;9.80;92.67
46638;BME280;32365;46.938;7.390;2023-05-11T19:12:11;94959.97;;;9.96;92.11
46638;BME280;32365;46.938;7.390;2023-05-11T19:14:39;94957.09;;;9.92;91.76
46638;BME280;32365;46.938;7.390;2023-05-11T19:17:05;94969.19;;;9.75;91.63
46638;BME280;32365;46.938;7.390;2023-05-11T19:19:31;94969.66;;;9.72;93.11
46638;BME280;32365;46.938;7.390;2023-05-11T19:21:58;94971.25;;;9.73;93.36